Time;durP1;ratioP1;P1;durP2;ratioP2;P2;SDS_P1;SDS_P2;PMS_P1;PMS_P2;Temp;Humidity;BMP_temperature;BMP_pressure;BME280_temperature;BME280_humidity;BME280_pressure;Samples;Min_cycle;Max_cycle;Signal;HPM_P1;HPM_P2
2023/05/20 00:00:30;;;;;;;5.25;2.70;;;13.50;1.00;;;;;;5049290;28;20562;-60
2023/05/20 00:02:56;;;;;;;7.10;2.65;;;13.40;1.00;;;;;;5048838;28;20039;-59
2023/05/20 00:05:22;;;;;;;4.05;2.40;;;13.30;1.00;;;;;;5044779;28;20552;-59
2023/05/20 00:07:48;;;;;;;6.97;2.20;;;13.30;20.30;;;;;;5054099;28;20116;-59
2023/05/20 00:10:13;;;;;;;5.63;2.30;;;13.30;32.30;;;;;;5050063;28;20178;-59
2023/05/20 00:12:39;;;;;;;6.05;2.33;;;13.20;99.90;;;;;;5054670;28;20028;-59
2023/05/20 00:15:05;;;;;;;5.93;2.38;;;13.30;1.00;;;;;;5045340;28;20051;-59
2023/05/20 00:17:31;;;;;;;4.22;2.38;;;13.00;29.80;;;;;;5052384;28;20036;-59
2023/05/20 00:19:58;;;;;;;7.88;2.28;;;13.00;63.40;;;;;;5047989;28;20037;-60
2023/05/20 00:22:23;;;;;;;5.13;2.55;;;12.90;99.90;;;;;;5048645;28;20048;-59
2023/05/20 00:24:49;;;;;;;5.45;2.20;;;12.70;99.90;;;;;;5047026;28;20041;-59
2023/05/20 00:27:15;;;;;;;7.03;2.70;;;12.70;99.90;;;;;;5049557;28;20033;-59
2023/05/20 00:29:40;;;;;;;5.72;2.45;;;12.80;99.90;;;;;;5056934;28;20123;-59
2023/05/20 00:32:06;;;;;;;6.18;2.67;;;12.90;1.00;;;;;;5044352;28;20795;-59
2023/05/20 00:34:31;;;;;;;3.70;2.05;;;12.90;1.00;;;;;;5051169;28;20617;-59
2023/05/20 00:36:57;;;;;;;7.35;2.30;;;12.90;6.80;;;;;;5052395;28;20493;-59
2023/05/20 00:39:23;;;;;;;4.95;2.40;;;13.00;1.00;;;;;;5053997;28;20501;-59
2023/05/20 00:41:48;;;;;;;5.20;2.55;;;13.00;1.00;;;;;;5052702;28;20036;-59
2023/05/20 00:44:14;;;;;;;6.78;2.50;;;13.00;1.00;;;;;;5054400;28;20591;-59
2023/05/20 00:46:40;;;;;;;5.20;2.30;;;13.00;13.50;;;;;;5055168;28;20491;-59
2023/05/20 00:49:05;;;;;;;6.80;2.67;;;12.90;99.90;;;;;;5055107;28;20251;-58
2023/05/20 00:51:32;;;;;;;4.00;2.42;;;12.70;99.90;;;;;;5056988;28;20036;-59
2023/05/20 00:53:58;;;;;;;6.57;2.60;;;12.70;99.90;;;;;;5055013;28;20044;-59
2023/05/20 00:56:25;;;;;;;5.35;2.53;;;12.70;99.90;;;;;;5045737;28;20483;-59
2023/05/20 00:58:51;;;;;;;7.13;2.67;;;12.70;99.90;;;;;;5055008;28;20097;-59
2023/05/20 01:01:16;;;;;;;6.90;2.38;;;12.70;99.90;;;;;;5049953;28;20509;-59
2023/05/20 01:03:42;;;;;;;4.10;2.47;;;12.70;99.90;;;;;;5050378;28;20428;-59
2023/05/20 01:06:07;;;;;;;7.18;2.58;;;12.80;99.90;;;;;;5043343;28;20048;-58
2023/05/20 01:08:34;;;;;;;5.82;2.33;;;12.60;99.90;;;;;;5054535;28;20097;-59
2023/05/20 01:11:13;;;;;;;8.68;2.40;;;12.60;99.90;;;;;;5044273;28;20125;-59
2023/05/20 01:13:53;;;;;;;4.80;2.47;;;12.50;1.00;;;;;;5048862;28;20083;-59
2023/05/20 01:16:20;;;;;;;5.40;2.28;;;12.70;99.90;;;;;;5048118;28;20412;-59
2023/05/20 01:18:47;;;;;;;5.35;2.53;;;12.60;99.90;;;;;;5051516;28;20078;-59
2023/05/20 01:21:14;;;;;;;7.03;2.60;;;12.60;99.90;;;;;;5047434;28;20094;-59
2023/05/20 01:23:40;;;;;;;5.70;2.67;;;12.50;1.00;;;;;;5051939;28;20037;-59
2023/05/20 01:26:07;;;;;;;6.28;2.47;;;12.40;1.00;;;;;;5046123;28;20089;-58
2023/05/20 01:28:38;;;;;;;4.15;2.50;;;12.30;1.00;;;;;;5051062;28;20669;-59
2023/05/20 01:31:05;;;;;;;7.30;2.65;;;12.50;1.00;;;;;;5048642;28;20044;-58
2023/05/20 01:33:34;;;;;;;7.47;2.90;;;12.50;1.00;;;;;;5047357;28;20573;-59
2023/05/20 01:36:00;;;;;;;5.72;2.65;;;12.50;1.00;;;;;;5052510;28;20307;-59
2023/05/20 01:38:26;;;;;;;6.35;2.30;;;12.30;1.00;;;;;;5051157;28;20033;-59
2023/05/20 01:40:53;;;;;;;4.22;2.20;;;12.20;1.00;;;;;;5051651;28;20036;-59
2023/05/20 01:43:20;;;;;;;4.85;2.53;;;12.20;1.00;;;;;;5048443;28;20043;-59
2023/05/20 01:45:46;;;;;;;5.13;2.40;;;12.20;14.80;;;;;;5050921;28;20039;-59
2023/05/20 01:48:12;;;;;;;4.30;2.30;;;12.20;50.30;;;;;;5051809;28;20554;-59
2023/05/20 01:50:38;;;;;;;6.75;2.50;;;12.20;1.00;;;;;;5050398;28;20036;-59
2023/05/20 01:53:04;;;;;;;7.53;2.50;;;12.20;14.70;;;;;;5048368;28;20612;-58
2023/05/20 01:55:30;;;;;;;5.50;2.75;;;12.10;63.60;;;;;;5048969;28;20452;-59
2023/05/20 01:57:56;;;;;;;5.60;2.30;;;12.20;68.10;;;;;;5052259;28;20029;-58
2023/05/20 02:00:21;;;;;;;6.72;2.95;;;12.20;2.60;;;;;;5058021;28;20083;-59
2023/05/20 02:02:47;;;;;;;7.20;2.88;;;12.20;14.10;;;;;;5047210;28;20037;-59
2023/05/20 02:05:12;;;;;;;6.68;2.80;;;12.20;21.50;;;;;;5052500;28;20115;-59
2023/05/20 02:07:38;;;;;;;6.57;2.92;;;12.10;97.00;;;;;;5049365;28;20060;-59
2023/05/20 02:10:04;;;;;;;5.45;2.50;;;12.10;99.90;;;;;;5055005;28;20036;-58
2023/05/20 02:12:30;;;;;;;8.40;2.90;;;12.10;99.90;;;;;;5053214;28;20032;-59
2023/05/20 02:14:56;;;;;;;6.25;2.70;;;12.00;99.90;;;;;;5045212;28;20504;-59
2023/05/20 02:17:21;;;;;;;6.47;3.25;;;12.00;99.90;;;;;;5053172;28;20426;-59
2023/05/20 02:19:47;;;;;;;9.05;2.60;;;11.90;99.90;;;;;;5047748;28;20044;-59
2023/05/20 02:22:13;;;;;;;5.03;2.88;;;11.90;99.90;;;;;;5055473;28;20028;-59
2023/05/20 02:24:39;;;;;;;10.23;3.00;;;12.00;99.90;;;;;;5058875;28;20175;-59
2023/05/20 02:27:05;;;;;;;9.15;3.03;;;12.00;99.90;;;;;;5053500;28;20044;-59
2023/05/20 02:29:31;;;;;;;4.78;2.60;;;11.90;99.90;;;;;;5047667;28;20041;-59
2023/05/20 02:31:57;;;;;;;6.05;3.35;;;12.00;99.90;;;;;;5050012;28;20420;-59
2023/05/20 02:34:24;;;;;;;5.20;2.90;;;12.00;99.90;;;;;;5051373;28;20189;-59
2023/05/20 02:36:50;;;;;;;6.72;2.80;;;12.20;99.90;;;;;;5052819;28;20064;-59
2023/05/20 02:39:16;;;;;;;4.32;2.95;;;12.10;99.90;;;;;;5052962;28;20512;-59
2023/05/20 02:41:41;;;;;;;4.28;2.50;;;12.10;99.90;;;;;;5050339;28;20413;-59
2023/05/20 02:44:07;;;;;;;7.45;3.13;;;12.00;99.90;;;;;;5058354;28;20668;-58
2023/05/20 02:46:33;;;;;;;6.32;3.20;;;12.00;99.90;;;;;;5057673;28;20036;-59
2023/05/20 02:48:58;;;;;;;5.82;2.90;;;11.90;99.90;;;;;;5048118;28;20063;-59
2023/05/20 02:51:24;;;;;;;5.65;2.80;;;11.80;99.90;;;;;;5049195;28;20152;-59
2023/05/20 02:53:50;;;;;;;7.05;2.63;;;11.90;99.90;;;;;;5043405;28;20329;-58
2023/05/20 02:56:20;;;;;;;5.97;2.85;;;11.90;99.90;;;;;;5048284;28;20114;-59
2023/05/20 02:58:46;;;;;;;5.22;3.00;;;11.80;99.90;;;;;;5049928;28;20036;-59
2023/05/20 03:01:12;;;;;;;8.70;2.50;;;11.90;99.90;;;;;;5045548;28;20063;-59
2023/05/20 03:03:39;;;;;;;5.25;2.70;;;12.00;99.90;;;;;;5047955;28;20048;-59
2023/05/20 03:06:05;;;;;;;4.35;2.47;;;11.90;99.90;;;;;;5048282;28;20141;-59
2023/05/20 03:08:32;;;;;;;4.88;2.70;;;11.90;99.90;;;;;;5051797;28;20045;-59
2023/05/20 03:10:58;;;;;;;4.97;2.88;;;11.90;99.90;;;;;;5049605;28;20037;-59
2023/05/20 03:13:24;;;;;;;6.30;2.88;;;11.80;99.90;;;;;;5045070;28;20056;-59
2023/05/20 03:15:50;;;;;;;7.47;3.10;;;11.80;99.90;;;;;;5051951;28;20166;-59
2023/05/20 03:18:16;;;;;;;7.65;3.13;;;11.70;99.90;;;;;;5043867;28;20033;-58
2023/05/20 03:20:41;;;;;;;7.43;3.15;;;11.70;99.90;;;;;;5047690;28;20043;-59
2023/05/20 03:23:07;;;;;;;8.13;3.30;;;11.80;99.90;;;;;;5052507;28;20632;-58
2023/05/20 03:25:33;;;;;;;7.55;3.28;;;11.70;99.90;;;;;;5054004;28;20033;-59
2023/05/20 03:27:59;;;;;;;6.88;3.10;;;11.70;99.90;;;;;;5050531;28;20043;-59
2023/05/20 03:30:25;;;;;;;5.97;3.20;;;11.70;99.90;;;;;;5050087;28;20071;-59
2023/05/20 03:32:51;;;;;;;6.35;3.05;;;11.70;99.90;;;;;;5051149;28;20468;-59
2023/05/20 03:35:17;;;;;;;7.05;3.42;;;11.70;99.90;;;;;;5051574;28;20037;-58
2023/05/20 03:37:43;;;;;;;8.48;3.80;;;11.60;1.00;;;;;;5055641;28;20033;-59
2023/05/20 03:40:09;;;;;;;7.20;3.60;;;11.70;1.00;;;;;;5051234;28;20131;-59
2023/05/20 03:42:35;;;;;;;6.40;3.63;;;11.60;1.00;;;;;;5053926;28;20410;-59
2023/05/20 03:45:01;;;;;;;8.32;3.35;;;11.60;1.00;;;;;;5041567;28;20492;-59
2023/05/20 03:47:27;;;;;;;5.70;3.10;;;11.60;1.00;;;;;;5046112;28;20094;-59
2023/05/20 03:49:53;;;;;;;6.30;3.45;;;11.70;1.00;;;;;;5050596;28;20039;-59
2023/05/20 03:52:19;;;;;;;8.02;3.40;;;11.70;1.00;;;;;;5045714;28;20480;-59
2023/05/20 03:54:44;;;;;;;6.05;3.25;;;11.70;1.00;;;;;;5047459;28;20045;-59
2023/05/20 03:57:10;;;;;;;7.95;3.38;;;11.70;1.00;;;;;;5050568;28;20400;-59
2023/05/20 03:59:36;;;;;;;10.35;3.38;;;11.60;1.00;;;;;;5044935;28;20669;-59
2023/05/20 04:02:02;;;;;;;6.97;3.13;;;11.80;1.00;;;;;;5050362;28;20725;-55
2023/05/20 04:04:28;;;;;;;7.30;3.00;;;11.70;1.00;;;;;;5051023;28;20043;-59
2023/05/20 04:06:55;;;;;;;7.68;3.10;;;11.70;1.00;;;;;;5054319;28;20033;-59
2023/05/20 04:09:21;;;;;;;7.43;3.33;;;11.60;1.00;;;;;;5054456;28;20045;-59
2023/05/20 04:11:46;;;;;;;6.50;3.10;;;11.60;1.00;;;;;;5053909;28;20040;-59
2023/05/20 04:14:14;;;;;;;6.85;3.40;;;11.70;1.00;;;;;;5054962;28;20690;-59
2023/05/20 04:16:40;;;;;;;6.82;3.33;;;11.60;1.00;;;;;;5053966;28;20037;-59
2023/05/20 04:19:06;;;;;;;6.38;2.92;;;11.80;1.00;;;;;;5055284;28;20028;-59
2023/05/20 04:21:31;;;;;;;8.02;2.97;;;11.70;1.00;;;;;;5055165;28;20553;-59
2023/05/20 04:23:57;;;;;;;6.18;3.13;;;11.80;1.00;;;;;;5054661;28;20048;-59
2023/05/20 04:26:23;;;;;;;7.05;3.33;;;11.70;1.00;;;;;;5050865;28;20079;-59
2023/05/20 04:28:49;;;;;;;8.68;3.28;;;11.70;1.00;;;;;;5054483;28;20520;-59
2023/05/20 04:31:14;;;;;;;5.70;3.40;;;11.70;1.00;;;;;;5050226;28;20678;-59
2023/05/20 04:33:40;;;;;;;5.40;2.97;;;11.70;1.00;;;;;;5049841;28;20036;-59
2023/05/20 04:36:08;;;;;;;8.40;2.90;;;11.80;1.00;;;;;;5050757;28;20134;-59
2023/05/20 04:38:34;;;;;;;7.93;3.47;;;11.80;1.00;;;;;;5054009;28;20094;-59
2023/05/20 04:41:00;;;;;;;3.33;2.88;;;11.70;1.00;;;;;;5053031;28;20040;-59
2023/05/20 04:43:28;;;;;;;5.90;3.00;;;11.70;1.00;;;;;;5050725;28;20452;-59
2023/05/20 04:45:55;;;;;;;6.57;3.00;;;11.80;1.00;;;;;;5053110;28;20457;-59
2023/05/20 04:48:21;;;;;;;5.60;3.38;;;12.00;1.00;;;;;;5046915;28;20315;-59
2023/05/20 04:50:56;;;;;;;5.40;3.10;;;12.00;1.00;;;;;;5049001;28;20109;-59
2023/05/20 04:53:22;;;;;;;7.30;3.55;;;12.00;1.00;;;;;;5043706;28;20571;-59
2023/05/20 04:55:52;;;;;;;8.50;3.88;;;11.90;1.00;;;;;;5045700;28;20044;-59
2023/05/20 04:58:18;;;;;;;5.68;3.13;;;12.00;1.00;;;;;;5047019;28;20045;-59
2023/05/20 05:00:44;;;;;;;7.15;3.40;;;12.00;1.00;;;;;;5052525;28;20113;-59
2023/05/20 05:03:14;;;;;;;4.88;3.20;;;12.00;1.00;;;;;;5050943;28;20103;-59
2023/05/20 05:05:41;;;;;;;7.35;2.92;;;12.20;1.00;;;;;;5053842;28;20043;-59
2023/05/20 05:08:07;;;;;;;9.65;2.97;;;12.30;1.00;;;;;;5044881;28;20551;-59
2023/05/20 05:10:33;;;;;;;6.90;3.33;;;12.30;1.00;;;;;;5050860;28;20127;-59
2023/05/20 05:12:59;;;;;;;7.25;3.42;;;12.40;1.00;;;;;;5047098;28;20044;-59
2023/05/20 05:15:25;;;;;;;6.82;3.50;;;12.40;1.00;;;;;;5052212;28;20036;-59
2023/05/20 05:17:51;;;;;;;7.70;3.60;;;12.50;1.00;;;;;;5047977;28;20109;-59
2023/05/20 05:20:17;;;;;;;8.15;3.17;;;12.50;99.90;;;;;;5055160;28;20725;-59
2023/05/20 05:22:43;;;;;;;7.97;3.20;;;;;;;;;;5049094;28;20028;-59
2023/05/20 05:25:10;;;;;;;8.95;5.10;;;12.70;1.00;;;;;;5045281;28;20492;-59
2023/05/20 05:27:35;;;;;;;12.38;5.97;;;12.90;99.90;;;;;;5052656;28;20717;-60
2023/05/20 05:30:02;;;;;;;9.90;4.47;;;13.00;99.90;;;;;;5049398;28;20058;-59
2023/05/20 05:32:27;;;;;;;8.30;4.38;;;13.10;99.90;;;;;;5047433;28;20380;-60
2023/05/20 05:34:53;;;;;;;6.18;3.58;;;13.10;99.90;;;;;;5056171;28;20075;-60
2023/05/20 05:37:20;;;;;;;6.53;2.83;;;13.20;99.90;;;;;;5051583;28;20146;-60
2023/05/20 05:39:46;;;;;;;6.45;3.55;;;13.30;99.90;;;;;;5059255;28;20036;-60
2023/05/20 05:42:11;;;;;;;7.00;3.40;;;13.30;99.90;;;;;;5055090;28;20082;-59
2023/05/20 05:44:37;;;;;;;7.68;3.58;;;13.40;99.90;;;;;;5055179;28;20041;-60
2023/05/20 05:47:03;;;;;;;4.25;2.85;;;13.50;99.90;;;;;;5049599;28;20048;-59
2023/05/20 05:49:28;;;;;;;6.18;3.35;;;13.50;99.90;;;;;;5054260;28;20034;-60
2023/05/20 05:51:54;;;;;;;8.75;3.40;;;13.60;99.90;;;;;;5052619;28;20036;-60
2023/05/20 05:54:19;;;;;;;5.68;3.20;;;13.80;99.90;;;;;;5050113;28;20102;-60
2023/05/20 05:56:46;;;;;;;8.32;3.60;;;13.90;43.60;;;;;;5055633;28;20464;-60
2023/05/20 05:59:11;;;;;;;5.57;3.45;;;13.80;99.90;;;;;;5053634;28;20475;-60
2023/05/20 06:01:37;;;;;;;6.82;3.42;;;13.90;99.90;;;;;;5051101;28;20037;-60
2023/05/20 06:04:03;;;;;;;7.60;3.20;;;14.10;61.90;;;;;;5050348;28;20044;-59
2023/05/20 06:06:30;;;;;;;6.50;3.65;;;14.00;96.30;;;;;;5050578;28;20044;-60
2023/05/20 06:08:56;;;;;;;6.03;3.53;;;14.10;4.40;;;;;;5056431;28;20109;-60
2023/05/20 06:11:22;;;;;;;6.53;3.47;;;14.20;31.10;;;;;;5053446;28;20045;-60
2023/05/20 06:13:48;;;;;;;5.90;3.88;;;14.30;99.90;;;;;;5051485;28;20554;-60
2023/05/20 06:16:15;;;;;;;6.72;3.85;;;14.40;1.00;;;;;;5048651;28;20068;-60
2023/05/20 06:18:41;;;;;;;6.63;3.67;;;14.50;1.00;;;;;;5048405;28;20115;-61
2023/05/20 06:21:06;;;;;;;5.80;4.07;;;14.70;1.00;;;;;;5048824;28;20515;-60
2023/05/20 06:23:32;;;;;;;6.43;3.55;;;14.80;1.00;;;;;;5050520;28;20072;-60
2023/05/20 06:25:58;;;;;;;5.85;3.10;;;14.70;1.00;;;;;;5052451;28;20040;-60
2023/05/20 06:28:24;;;;;;;6.15;3.40;;;14.70;1.00;;;;;;5055987;28;20036;-61
2023/05/20 06:30:51;;;;;;;13.93;4.57;;;14.70;1.00;;;;;;5056204;28;20041;-60
2023/05/20 06:33:19;;;;;;;5.07;3.40;;;14.70;99.90;;;;;;5053632;28;20350;-60
2023/05/20 06:35:44;;;;;;;4.32;3.58;;;15.00;99.90;;;;;;5053854;28;20567;-61
2023/05/20 06:38:10;;;;;;;7.30;4.10;;;14.90;99.90;;;;;;5053246;28;20044;-60
2023/05/20 06:40:35;;;;;;;6.93;4.25;;;14.90;99.90;;;;;;5052869;28;20044;-60
2023/05/20 06:43:01;;;;;;;9.35;3.63;;;15.20;99.90;;;;;;5052634;28;20131;-61
2023/05/20 06:45:27;;;;;;;5.57;3.55;;;15.40;99.90;;;;;;5049199;28;20059;-60
2023/05/20 06:47:53;;;;;;;9.60;3.55;;;15.60;18.00;;;;;;5058506;28;20036;-61
2023/05/20 06:50:19;;;;;;;6.55;3.10;;;15.50;99.90;;;;;;5052420;28;20056;-60
2023/05/20 06:52:44;;;;;;;4.32;3.10;;;15.40;76.30;;;;;;5051523;28;20102;-64
2023/05/20 06:55:10;;;;;;;4.47;3.00;;;15.30;1.00;;;;;;5045187;28;20834;-63
2023/05/20 06:57:36;;;;;;;5.05;3.30;;;15.40;99.90;;;;;;5055886;28;20033;-68
2023/05/20 07:00:04;;;;;;;5.15;3.10;;;15.40;1.00;;;;;;5058998;28;20091;-67
2023/05/20 07:02:31;;;;;;;4.95;3.10;;;15.60;3.20;;;;;;5059523;28;20063;-67
2023/05/20 07:04:57;;;;;;;4.82;3.05;;;15.50;1.00;;;;;;5058585;28;20033;-67
2023/05/20 07:07:22;;;;;;;5.07;2.63;;;15.30;1.00;;;;;;5058940;28;20045;-67
2023/05/20 07:09:48;;;;;;;6.10;3.15;;;15.30;5.10;;;;;;5059391;28;20039;-67
2023/05/20 07:12:14;;;;;;;9.77;3.28;;;15.40;99.90;;;;;;5054979;28;20059;-67
2023/05/20 07:14:39;;;;;;;6.75;3.15;;;15.30;99.90;;;;;;5060858;28;20033;-67
2023/05/20 07:17:05;;;;;;;4.75;3.38;;;15.40;90.80;;;;;;5056661;28;20033;-67
2023/05/20 07:19:30;;;;;;;6.15;2.97;;;15.40;1.00;;;;;;5056714;28;20044;-67
2023/05/20 07:21:56;;;;;;;12.43;3.50;;;15.50;1.00;;;;;;5061126;28;20056;-67
2023/05/20 07:24:22;;;;;;;5.68;3.60;;;15.40;1.00;;;;;;5052710;28;20355;-67
2023/05/20 07:26:47;;;;;;;7.28;3.30;;;15.30;41.80;;;;;;5059483;28;20316;-67
2023/05/20 07:29:13;;;;;;;8.38;4.60;;;15.50;94.60;;;;;;5057659;28;20052;-67
2023/05/20 07:31:38;;;;;;;5.53;3.22;;;15.60;1.00;;;;;;5061157;28;20044;-63
2023/05/20 07:34:04;;;;;;;4.72;3.22;;;15.70;1.00;;;;;;5056820;28;20128;-66
2023/05/20 07:36:31;;;;;;;4.75;3.47;;;15.70;1.00;;;;;;5061046;28;20104;-67
2023/05/20 07:38:56;;;;;;;6.60;3.70;;;15.70;1.00;;;;;;5057047;28;20029;-66
2023/05/20 07:41:22;;;;;;;6.35;3.55;;;15.70;1.00;;;;;;5060243;28;20112;-68
2023/05/20 07:43:47;;;;;;;6.70;3.67;;;15.80;1.00;;;;;;5057403;28;20063;-64
2023/05/20 07:46:13;;;;;;;5.95;3.50;;;15.80;1.00;;;;;;5056355;28;20481;-63
2023/05/20 07:48:38;;;;;;;5.25;3.15;;;15.80;1.00;;;;;;5055346;28;20614;-64
2023/05/20 07:51:04;;;;;;;6.65;3.58;;;15.70;1.00;;;;;;5058261;28;20105;-63
2023/05/20 07:53:29;;;;;;;7.18;3.72;;;15.70;26.60;;;;;;5047714;28;20041;-64
2023/05/20 07:55:55;;;;;;;6.00;3.60;;;15.60;1.00;;;;;;5055748;28;20124;-64
2023/05/20 07:58:21;;;;;;;6.35;3.50;;;15.70;1.00;;;;;;5057759;28;20063;-64
2023/05/20 08:00:47;;;;;;;7.72;3.75;;;15.80;18.30;;;;;;5055689;28;20182;-64
2023/05/20 08:03:13;;;;;;;9.73;3.80;;;16.00;1.00;;;;;;5051090;28;20037;-64
2023/05/20 08:05:40;;;;;;;6.70;3.75;;;15.90;1.00;;;;;;5050842;28;20549;-65
2023/05/20 08:08:06;;;;;;;9.00;3.90;;;15.90;1.00;;;;;;5049845;28;20032;-64
2023/05/20 08:10:31;;;;;;;8.57;3.80;;;16.20;99.90;;;;;;5052406;28;20033;-65
2023/05/20 08:12:57;;;;;;;11.23;3.85;;;16.30;1.00;;;;;;5050696;28;20041;-65
2023/05/20 08:15:22;;;;;;;12.82;4.25;;;16.40;1.00;;;;;;5048361;28;20040;-64
2023/05/20 08:17:48;;;;;;;7.25;3.97;;;16.40;99.90;;;;;;5050545;28;20043;-64
2023/05/20 08:20:14;;;;;;;8.35;4.28;;;16.40;99.90;;;;;;5056600;28;20563;-64
2023/05/20 08:22:39;;;;;;;7.32;4.22;;;16.20;99.90;;;;;;5052167;28;20058;-67
2023/05/20 08:25:08;;;;;;;9.80;5.28;;;16.20;1.00;;;;;;5053132;28;20090;-65
2023/05/20 08:27:36;;;;;;;7.00;4.22;;;16.20;1.00;;;;;;5059916;28;20037;-66
2023/05/20 08:30:02;;;;;;;7.35;3.95;;;16.10;1.00;;;;;;5060001;28;20135;-65
2023/05/20 08:32:28;;;;;;;6.68;4.68;;;16.30;1.80;;;;;;5055682;28;20182;-66
2023/05/20 08:34:54;;;;;;;6.90;4.68;;;16.30;1.00;;;;;;5055518;28;20515;-67
2023/05/20 08:37:20;;;;;;;10.18;4.40;;;16.40;1.00;;;;;;5054696;28;20058;-65
2023/05/20 08:39:48;;;;;;;10.63;4.38;;;16.60;1.00;;;;;;5057459;28;20037;-66
2023/05/20 08:42:13;;;;;;;7.50;4.00;;;16.60;99.90;;;;;;5059417;28;20161;-65
2023/05/20 08:44:40;;;;;;;7.50;4.50;;;16.50;99.90;;;;;;5054185;28;20424;-66
2023/05/20 08:47:07;;;;;;;10.07;4.28;;;16.60;99.90;;;;;;5055642;28;20061;-65
2023/05/20 08:49:33;;;;;;;8.35;4.63;;;16.60;1.00;;;;;;5057338;28;20035;-66
2023/05/20 08:52:00;;;;;;;8.48;4.35;;;16.60;1.00;;;;;;5052614;28;20101;-66
2023/05/20 08:54:43;;;;;;;8.55;4.70;;;16.60;99.90;;;;;;5057323;28;20393;-66
2023/05/20 08:57:12;;;;;;;6.85;4.53;;;16.70;1.00;;;;;;5055892;28;20079;-65
2023/05/20 08:59:41;;;;;;;9.45;4.50;;;16.60;1.00;;;;;;5053573;28;20044;-66
2023/05/20 09:02:08;;;;;;;9.13;4.80;;;16.80;1.00;;;;;;5053154;28;20037;-66
2023/05/20 09:04:34;;;;;;;8.40;4.43;;;16.90;1.00;;;;;;5052750;28;20349;-66
2023/05/20 09:06:59;;;;;;;5.80;4.22;;;16.70;1.00;;;;;;5055462;28;20078;-65
2023/05/20 09:09:25;;;;;;;8.68;4.80;;;16.60;1.00;;;;;;5044884;28;20075;-65
2023/05/20 09:11:50;;;;;;;8.60;4.38;;;16.40;1.00;;;;;;5043992;28;20467;-65
2023/05/20 09:14:16;;;;;;;8.88;5.22;;;16.50;1.00;;;;;;5052813;28;20488;-65
2023/05/20 09:16:41;;;;;;;9.40;5.63;;;16.50;1.00;;;;;;5054573;28;20501;-66
2023/05/20 09:19:08;;;;;;;8.60;5.20;;;16.50;1.00;;;;;;5054993;28;20534;-64
2023/05/20 09:21:34;;;;;;;9.43;5.07;;;16.60;1.00;;;;;;5050833;28;20747;-66
2023/05/20 09:24:03;;;;;;;13.50;5.53;;;16.70;1.00;;;;;;5048050;28;20033;-66
2023/05/20 09:26:29;;;;;;;10.50;5.35;;;16.90;1.00;;;;;;5051006;28;20045;-65
2023/05/20 09:28:56;;;;;;;6.55;4.68;;;17.00;99.90;;;;;;5044734;28;20045;-68
2023/05/20 09:31:26;;;;;;;6.10;4.40;;;17.10;1.00;;;;;;5048314;28;20049;-67
2023/05/20 09:33:53;;;;;;;6.78;4.60;;;17.00;99.90;;;;;;5052839;28;20033;-68
2023/05/20 09:36:21;;;;;;;7.15;4.85;;;17.10;99.90;;;;;;5052708;28;20364;-64
2023/05/20 09:38:51;;;;;;;11.10;5.13;;;17.50;99.90;;;;;;5045509;28;20174;-69
2023/05/20 09:41:20;;;;;;;8.40;5.15;;;17.50;99.90;;;;;;5047612;28;20473;-67
2023/05/20 09:43:47;;;;;;;5.50;4.50;;;18.00;1.00;;;;;;5045392;28;20739;-68
2023/05/20 09:46:15;;;;;;;6.10;4.63;;;17.80;69.20;;;;;;5053624;28;20037;-67
2023/05/20 09:48:41;;;;;;;6.90;4.57;;;17.60;99.90;;;;;;5051655;28;20044;-68
2023/05/20 09:51:07;;;;;;;9.93;4.80;;;18.20;99.90;;;;;;5047034;28;20037;-65
2023/05/20 09:53:33;;;;;;;10.32;5.50;;;18.30;99.90;;;;;;5050960;28;20028;-68
2023/05/20 09:55:58;;;;;;;7.40;5.20;;;18.30;99.90;;;;;;5051218;28;20407;-69
2023/05/20 09:58:25;;;;;;;8.73;5.57;;;18.30;1.00;;;;;;5046477;28;20029;-67
2023/05/20 10:00:52;;;;;;;9.52;5.35;;;18.10;99.90;;;;;;5047551;28;20456;-68
2023/05/20 10:03:21;;;;;;;8.82;5.22;;;18.00;1.00;;;;;;5050527;28;20033;-67
2023/05/20 10:06:05;;;;;;;10.57;6.07;;;17.30;91.80;;;;;;5057900;28;20376;-65
2023/05/20 10:08:59;;;;;;;7.20;5.53;;;17.30;99.90;;;;;;5053916;28;20032;-65
2023/05/20 10:11:37;;;;;;;9.20;5.47;;;17.30;99.90;;;;;;5011833;28;20034;-65
2023/05/20 10:14:21;;;;;;;7.82;5.28;;;17.50;99.90;;;;;;5032354;28;20041;-64
2023/05/20 10:17:06;;;;;;;7.68;5.65;;;17.80;99.90;;;;;;5052965;28;20115;-65
2023/05/20 10:19:33;;;;;;;10.38;5.55;;;17.80;1.00;;;;;;5056030;28;20039;-65
2023/05/20 10:22:07;;;;;;;7.32;5.30;;;17.70;42.40;;;;;;5055565;28;20032;-65
2023/05/20 10:24:39;;;;;;;10.05;5.97;;;17.80;99.90;;;;;;5061413;28;20028;-65
2023/05/20 10:27:08;;;;;;;10.88;6.07;;;17.80;25.60;;;;;;5059807;28;20037;-65
2023/05/20 10:29:54;;;;;;;7.97;6.55;;;17.50;99.90;;;;;;5062290;28;20451;-66
2023/05/20 10:32:28;;;;;;;8.80;6.20;;;17.60;99.90;;;;;;5054513;28;20047;-65
2023/05/20 10:35:03;;;;;;;8.57;5.57;;;17.70;99.90;;;;;;5061545;28;20580;-66
2023/05/20 10:37:44;;;;;;;9.52;5.82;;;17.90;99.90;;;;;;5060069;28;20441;-65
2023/05/20 10:40:11;;;;;;;7.63;5.10;;;17.80;99.90;;;;;;5058199;28;20029;-66
2023/05/20 10:42:38;;;;;;;7.88;5.78;;;18.10;99.90;;;;;;5058614;28;20115;-66
2023/05/20 10:45:05;;;;;;;8.65;5.55;;;17.90;99.90;;;;;;5057045;28;20357;-65
2023/05/20 10:47:31;;;;;;;9.73;6.13;;;17.60;99.90;;;;;;5059921;28;20682;-66
2023/05/20 10:49:57;;;;;;;7.53;5.72;;;17.80;99.90;;;;;;5051987;28;20044;-66
2023/05/20 10:52:23;;;;;;;9.82;6.70;;;17.50;99.90;;;;;;5052442;28;20041;-65
2023/05/20 10:54:52;;;;;;;6.63;5.50;;;17.10;99.90;;;;;;5052808;28;20037;-66
2023/05/20 10:57:18;;;;;;;9.10;6.05;;;17.50;99.90;;;;;;5049775;28;20396;-65
2023/05/20 10:59:43;;;;;;;8.55;6.15;;;18.10;1.00;;;;;;5046105;28;20047;-66
2023/05/20 11:02:12;;;;;;;10.02;6.55;;;18.10;1.00;;;;;;5053636;28;20512;-65
2023/05/20 11:04:38;;;;;;;9.43;6.40;;;18.20;99.90;;;;;;5050539;28;20032;-66
2023/05/20 11:07:03;;;;;;;11.07;5.78;;;18.10;1.00;;;;;;5051550;28;20033;-65
2023/05/20 11:09:30;;;;;;;6.88;5.55;;;17.70;1.00;;;;;;5048711;28;20684;-66
2023/05/20 11:11:56;;;;;;;8.55;5.95;;;17.60;99.90;;;;;;5054459;28;20051;-66
2023/05/20 11:14:22;;;;;;;10.23;5.70;;;17.50;1.00;;;;;;5055441;28;20048;-66
2023/05/20 11:16:52;;;;;;;7.45;5.80;;;17.60;99.90;;;;;;5052383;28;20051;-66
2023/05/20 11:19:18;;;;;;;8.57;5.80;;;17.40;1.00;;;;;;5057849;28;20043;-66
2023/05/20 11:21:44;;;;;;;8.55;5.88;;;17.50;1.00;;;;;;5057731;28;20029;-66
2023/05/20 11:24:11;;;;;;;8.20;5.53;;;17.70;99.90;;;;;;5049805;28;20029;-65
2023/05/20 11:26:36;;;;;;;9.50;5.90;;;17.80;1.00;;;;;;5049763;28;20036;-66
2023/05/20 11:29:02;;;;;;;7.90;5.65;;;17.90;1.00;;;;;;5057224;28;20106;-64
2023/05/20 11:31:28;;;;;;;9.07;6.05;;;18.00;99.90;;;;;;5046248;28;20532;-69
2023/05/20 11:33:53;;;;;;;8.82;5.50;;;18.10;54.20;;;;;;5057700;28;20039;-66
2023/05/20 11:36:19;;;;;;;7.97;5.30;;;17.60;1.00;;;;;;5052582;28;20033;-66
2023/05/20 11:38:47;;;;;;;10.77;5.30;;;18.30;99.90;;;;;;5054845;28;20380;-66
2023/05/20 11:41:13;;;;;;;10.90;5.75;;;18.40;99.90;;;;;;5055731;28;20017;-67
2023/05/20 11:43:40;;;;;;;9.85;5.72;;;18.40;99.90;;;;;;5056298;28;20381;-66
2023/05/20 11:46:06;;;;;;;8.30;5.70;;;18.20;99.90;;;;;;5053760;28;20037;-66
2023/05/20 11:48:31;;;;;;;10.25;5.65;;;18.50;1.00;;;;;;5054467;28;20052;-66
2023/05/20 11:50:57;;;;;;;9.77;5.72;;;18.60;98.30;;;;;;5048002;28;20398;-66
2023/05/20 11:53:23;;;;;;;10.80;5.90;;;18.60;1.00;;;;;;5051637;28;20069;-67
2023/05/20 11:55:54;;;;;;;12.10;6.20;;;18.60;99.90;;;;;;5056842;28;20033;-66
2023/05/20 11:58:30;;;;;;;8.57;5.97;;;18.60;96.60;;;;;;5056312;28;20041;-66
2023/05/20 12:00:56;;;;;;;10.10;5.50;;;19.30;1.00;;;;;;5058541;28;20508;-67
2023/05/20 12:03:21;;;;;;;8.80;6.00;;;18.70;1.00;;;;;;5054926;28;20040;-66
2023/05/20 12:05:49;;;;;;;6.55;5.32;;;18.90;99.90;;;;;;5052642;28;20032;-67
2023/05/20 12:08:15;;;;;;;7.10;5.70;;;18.40;1.00;;;;;;5056742;28;20039;-66
2023/05/20 12:10:40;;;;;;;10.10;5.80;;;18.50;1.00;;;;;;5058917;28;20024;-67
2023/05/20 12:13:12;;;;;;;8.98;6.05;;;18.70;1.00;;;;;;5052554;28;20477;-67
2023/05/20 12:15:38;;;;;;;9.25;5.82;;;18.80;1.00;;;;;;5052266;28;20457;-67
2023/05/20 12:18:05;;;;;;;9.02;5.90;;;19.00;99.90;;;;;;5044478;28;20037;-67
2023/05/20 12:20:32;;;;;;;8.70;4.80;;;19.00;99.90;;;;;;5056544;28;21140;-67
2023/05/20 12:22:59;;;;;;;8.57;5.18;;;18.90;1.00;;;;;;5057955;28;20041;-67
2023/05/20 12:25:24;;;;;;;6.68;4.38;;;19.10;41.40;;;;;;5057654;28;20041;-66
2023/05/20 12:27:50;;;;;;;8.55;5.20;;;19.00;1.00;;;;;;5054623;28;20040;-67
2023/05/20 12:30:17;;;;;;;7.18;5.13;;;18.60;1.00;;;;;;5050496;28;20083;-67
2023/05/20 12:32:44;;;;;;;6.63;5.28;;;18.70;22.50;;;;;;5051370;28;20096;-67
2023/05/20 12:35:10;;;;;;;7.47;5.25;;;18.70;1.00;;;;;;5061241;28;20123;-66
2023/05/20 12:37:37;;;;;;;10.70;5.65;;;18.90;1.00;;;;;;5057580;28;20155;-67
2023/05/20 12:40:07;;;;;;;8.00;5.40;;;18.90;1.00;;;;;;5059224;28;20040;-66
2023/05/20 12:42:39;;;;;;;6.82;5.18;;;19.00;1.00;;;;;;5059316;28;20033;-67
2023/05/20 12:45:06;;;;;;;7.85;6.20;;;19.30;1.00;;;;;;5057957;28;20396;-67
2023/05/20 12:47:33;;;;;;;7.00;5.10;;;19.60;1.00;;;;;;5054998;28;20095;-67